createdAt,value
2019-05-19T00:04:28.897Z,20.40
2019-05-19T00:09:31.613Z,12.03
2019-05-19T00:14:34.347Z,10.60
2019-05-19T00:19:37.048Z,11.73
2019-05-19T00:24:39.734Z,9.77
2019-05-19T00:29:42.458Z,11.43
2019-05-19T00:34:45.260Z,11.33
2019-05-19T00:39:47.975Z,11.17
2019-05-19T00:44:50.717Z,11.63
2019-05-19T00:49:55.166Z,12.30
2019-05-19T00:54:57.936Z,12.83
2019-05-19T01:00:01.306Z,12.20
2019-05-19T01:05:04.391Z,11.23
2019-05-19T01:10:09.211Z,15.70
2019-05-19T01:15:12.210Z,15.53
2019-05-19T01:20:15.514Z,13.07
2019-05-19T01:25:18.215Z,14.40
2019-05-19T01:30:21.102Z,10.50
2019-05-19T01:35:23.816Z,16.53
2019-05-19T01:40:26.487Z,12.73
2019-05-19T01:45:29.205Z,14.00
2019-05-19T01:50:31.923Z,10.40
2019-05-19T01:55:34.624Z,10.83
2019-05-19T02:00:37.412Z,13.07
2019-05-19T02:05:40.113Z,14.30
2019-05-19T02:10:42.799Z,12.33
2019-05-19T02:15:45.513Z,14.57
2019-05-19T02:20:48.229Z,12.90
2019-05-19T02:25:50.917Z,12.90
2019-05-19T02:30:53.776Z,14.63
2019-05-19T02:35:56.493Z,11.50
2019-05-19T02:41:02.335Z,14.17
2019-05-19T02:46:05.845Z,13.87
2019-05-19T02:51:10.595Z,15.53
2019-05-19T02:56:13.788Z,13.17
2019-05-19T03:01:16.483Z,13.13
2019-05-19T03:06:19.194Z,13.07
2019-05-19T03:11:21.940Z,10.70
2019-05-19T03:16:24.644Z,9.60
2019-05-19T03:21:27.352Z,12.87
2019-05-19T03:26:30.072Z,12.37
2019-05-19T03:31:40.261Z,12.60
2019-05-19T03:36:42.957Z,12.70
2019-05-19T03:41:45.701Z,13.03
2019-05-19T03:46:48.421Z,13.47
2019-05-19T03:51:51.158Z,11.60
2019-05-19T03:56:53.857Z,14.30
2019-05-19T04:01:56.551Z,12.30
2019-05-19T04:06:59.264Z,10.70
2019-05-19T04:12:02.002Z,12.40
2019-05-19T04:17:04.698Z,12.97
2019-05-19T04:22:07.380Z,14.50
2019-05-19T04:27:10.098Z,15.40
2019-05-19T04:32:12.808Z,12.03
2019-05-19T04:37:15.746Z,13.20
2019-05-19T04:42:18.455Z,16.20
2019-05-19T04:47:21.197Z,11.90
2019-05-19T04:52:24.872Z,14.87
2019-05-19T04:57:28.931Z,12.60
2019-05-19T05:02:32.144Z,13.70
2019-05-19T05:07:34.835Z,12.10
2019-05-19T05:12:37.538Z,14.60
2019-05-19T05:17:40.241Z,12.37
2019-05-19T05:22:42.961Z,11.20
2019-05-19T05:27:45.661Z,15.20
2019-05-19T05:32:48.368Z,17.80
2019-05-19T05:37:51.069Z,18.37
2019-05-19T05:42:54.117Z,20.10
2019-05-19T05:47:56.899Z,18.80
2019-05-19T05:52:59.605Z,16.27
2019-05-19T05:58:02.363Z,20.30
2019-05-19T06:03:05.244Z,21.10
2019-05-19T06:08:07.973Z,20.33
2019-05-19T06:13:12.539Z,23.03
2019-05-19T06:18:15.244Z,22.33
2019-05-19T06:23:17.968Z,25.40
2019-05-19T06:28:20.688Z,23.10
2019-05-19T06:33:23.425Z,23.50
2019-05-19T06:38:26.230Z,22.37
2019-05-19T06:43:29.070Z,22.10
2019-05-19T06:48:31.811Z,18.83
2019-05-19T06:53:34.796Z,18.90
2019-05-19T06:58:37.614Z,16.07
2019-05-19T07:03:40.408Z,14.97
2019-05-19T07:08:43.115Z,15.77
2019-05-19T07:13:45.951Z,11.57
2019-05-19T07:18:48.671Z,11.30
2019-05-19T07:23:51.385Z,11.43
2019-05-19T07:28:54.147Z,10.63
2019-05-19T07:33:56.859Z,12.37
2019-05-19T07:38:59.734Z,9.47
2019-05-19T07:44:02.494Z,9.50
2019-05-19T07:49:05.207Z,8.60
2019-05-19T07:54:09.675Z,8.57
2019-05-19T07:59:12.427Z,8.90
2019-05-19T08:04:15.130Z,8.40
2019-05-19T08:09:17.840Z,11.00
2019-05-19T08:14:20.571Z,9.20
2019-05-19T08:19:23.305Z,8.33
2019-05-19T08:24:26.354Z,10.13
2019-05-19T08:29:29.177Z,9.87
2019-05-19T08:34:31.899Z,8.93
2019-05-19T08:39:34.675Z,9.57
2019-05-19T08:44:39.285Z,10.40
2019-05-19T08:49:41.994Z,10.77
2019-05-19T08:54:44.705Z,11.23
2019-05-19T08:59:47.512Z,16.90
2019-05-19T09:04:50.262Z,16.17
2019-05-19T09:09:53.082Z,15.07
2019-05-19T09:14:56.028Z,18.57
2019-05-19T09:19:58.718Z,15.83
2019-05-19T09:25:01.589Z,18.43
2019-05-19T09:30:05.840Z,16.53
2019-05-19T09:35:08.757Z,16.33
2019-05-19T09:40:11.682Z,14.80
2019-05-19T09:45:14.719Z,14.43
2019-05-19T09:50:17.839Z,11.97
2019-05-19T09:55:20.574Z,12.23
2019-05-19T10:00:23.481Z,15.10
2019-05-19T10:05:26.201Z,15.80
2019-05-19T10:10:39.300Z,13.57
2019-05-19T10:15:42.166Z,14.07
2019-05-19T10:20:45.037Z,12.63
2019-05-19T10:25:47.796Z,16.67
2019-05-19T10:30:50.515Z,21.27
2019-05-19T10:35:53.220Z,12.43
2019-05-19T10:40:56.033Z,14.97
2019-05-19T10:45:59.296Z,11.17
2019-05-19T10:51:05.688Z,14.37
2019-05-19T10:56:10.540Z,12.00
2019-05-19T11:01:13.760Z,12.83
2019-05-19T11:06:16.784Z,8.20
2019-05-19T11:11:20.437Z,12.37
2019-05-19T11:16:23.861Z,10.17
2019-05-19T11:21:27.406Z,9.60
2019-05-19T11:26:31.365Z,8.77
2019-05-19T11:31:34.749Z,9.17
2019-05-19T11:36:37.449Z,12.03
2019-05-19T11:41:40.158Z,12.10
2019-05-19T11:46:42.903Z,12.97
2019-05-19T11:51:45.626Z,19.20
2019-05-19T11:56:48.348Z,14.50
2019-05-19T12:01:53.381Z,12.43
2019-05-19T12:06:56.284Z,10.50
2019-05-19T12:11:59.025Z,9.73
2019-05-19T12:17:01.785Z,11.13
2019-05-19T12:22:04.508Z,10.40
2019-05-19T12:27:07.245Z,9.90
2019-05-19T12:32:09.974Z,10.80
2019-05-19T12:37:12.679Z,12.03
2019-05-19T12:42:15.362Z,12.93
2019-05-19T12:47:18.098Z,11.87
2019-05-19T12:52:20.864Z,9.67
2019-05-19T12:57:23.605Z,9.77
2019-05-19T13:02:26.323Z,10.97
2019-05-19T13:07:29.058Z,8.97
2019-05-19T13:12:31.772Z,12.80
2019-05-19T13:17:34.500Z,11.23
2019-05-19T13:22:37.206Z,11.80
2019-05-19T13:27:39.950Z,9.60
2019-05-19T13:32:42.650Z,8.77
2019-05-19T13:37:45.386Z,10.33
2019-05-19T13:42:48.101Z,10.90
2019-05-19T13:47:51.151Z,9.90
2019-05-19T13:52:53.906Z,8.80
2019-05-19T13:57:56.607Z,9.63
2019-05-19T14:02:59.351Z,9.53
2019-05-19T14:08:02.068Z,6.27
2019-05-19T14:13:04.809Z,6.70
2019-05-19T14:18:07.553Z,8.10
2019-05-19T14:23:10.274Z,8.00
2019-05-19T14:28:13.049Z,9.90
2019-05-19T14:33:15.791Z,9.00
2019-05-19T14:38:18.520Z,8.87
2019-05-19T14:43:21.639Z,8.00
2019-05-19T14:48:24.398Z,7.07
2019-05-19T14:53:27.174Z,8.43
2019-05-19T14:58:29.929Z,6.90
2019-05-19T15:03:33.615Z,6.50
2019-05-19T15:08:36.386Z,6.43
2019-05-19T15:13:39.354Z,5.97
2019-05-19T15:18:42.082Z,8.63
2019-05-19T15:23:44.869Z,12.83
2019-05-19T15:28:47.608Z,6.90
2019-05-19T15:33:51.079Z,6.27
2019-05-19T15:38:53.793Z,8.10
2019-05-19T15:43:56.560Z,10.30
2019-05-19T15:48:59.302Z,6.20
2019-05-19T15:54:02.071Z,7.50
2019-05-19T15:59:04.787Z,7.23
2019-05-19T16:04:07.501Z,7.30
2019-05-19T16:09:10.228Z,8.37
2019-05-19T16:14:12.978Z,7.80
2019-05-19T16:19:15.713Z,8.47
2019-05-19T16:24:18.458Z,12.53
2019-05-19T16:29:21.224Z,9.63
2019-05-19T16:34:23.940Z,8.50
2019-05-19T16:39:26.709Z,8.03
2019-05-19T16:44:29.437Z,8.27
2019-05-19T16:49:32.170Z,7.27
2019-05-19T16:54:37.222Z,9.10
2019-05-19T16:59:39.919Z,8.90
2019-05-19T17:04:42.643Z,8.43
2019-05-19T17:09:45.340Z,8.47
2019-05-19T17:14:49.226Z,7.27
2019-05-19T17:19:52.101Z,7.43
2019-05-19T17:24:54.917Z,7.40
2019-05-19T17:29:58.820Z,12.30
2019-05-19T17:35:01.565Z,8.57
2019-05-19T17:40:04.971Z,9.00
2019-05-19T17:45:09.164Z,8.27
2019-05-19T17:50:14.222Z,8.53
2019-05-19T17:55:16.927Z,9.73
2019-05-19T18:00:38.711Z,13.00
2019-05-19T18:05:41.406Z,12.73
2019-05-19T18:10:44.115Z,11.60
2019-05-19T18:15:46.839Z,10.57
2019-05-19T18:20:49.685Z,11.33
2019-05-19T18:25:52.389Z,12.03
2019-05-19T18:30:55.224Z,15.33
2019-05-19T18:35:58.238Z,23.30
2019-05-19T18:41:01.056Z,26.67
2019-05-19T18:46:03.811Z,22.13
2019-05-19T18:51:06.502Z,16.23
2019-05-19T18:56:09.309Z,14.47
2019-05-19T19:01:12.037Z,16.03
2019-05-19T19:06:14.887Z,14.73
2019-05-19T19:11:17.593Z,15.10
2019-05-19T19:16:20.359Z,17.23
2019-05-19T19:21:23.093Z,18.90
2019-05-19T19:26:25.819Z,20.87
2019-05-19T19:31:28.523Z,17.37
2019-05-19T19:36:31.285Z,19.90
2019-05-19T19:41:34.388Z,19.20
2019-05-19T19:46:37.112Z,20.17
2019-05-19T19:51:39.807Z,17.10
2019-05-19T19:56:42.507Z,19.20
2019-05-19T20:01:45.368Z,16.80
2019-05-19T20:06:48.349Z,21.50
2019-05-19T20:11:51.090Z,17.40
2019-05-19T20:16:53.788Z,17.73
2019-05-19T20:21:56.588Z,20.07
2019-05-19T20:26:59.289Z,19.87
2019-05-19T20:32:02.015Z,20.20
2019-05-19T20:37:05.022Z,18.90
2019-05-19T20:42:07.823Z,18.53
2019-05-19T20:47:10.553Z,18.43
2019-05-19T20:52:13.262Z,20.97
2019-05-19T20:57:16.155Z,19.23
2019-05-19T21:02:18.893Z,17.60
2019-05-19T21:07:21.620Z,21.10
2019-05-19T21:12:24.594Z,19.37
2019-05-19T21:17:27.337Z,25.23
2019-05-19T21:22:30.147Z,21.47
2019-05-19T21:27:32.853Z,23.80
2019-05-19T21:32:35.607Z,22.97
2019-05-19T21:37:38.334Z,22.80
2019-05-19T21:42:41.055Z,24.00
2019-05-19T21:47:43.825Z,29.13
2019-05-19T21:52:46.535Z,24.50
2019-05-19T21:57:49.262Z,26.67
2019-05-19T22:02:51.972Z,29.30
2019-05-19T22:08:14.069Z,26.63
2019-05-19T22:13:16.812Z,21.20
2019-05-19T22:18:19.600Z,26.73
2019-05-19T22:23:22.289Z,24.03
2019-05-19T22:28:24.980Z,26.07
2019-05-19T22:33:27.678Z,24.83
2019-05-19T22:38:30.421Z,23.70
2019-05-19T22:43:33.102Z,22.73
2019-05-19T22:48:35.809Z,22.13
2019-05-19T22:53:38.488Z,27.17
2019-05-19T22:58:41.716Z,25.50
2019-05-19T23:03:44.481Z,25.13
2019-05-19T23:08:47.211Z,24.10
2019-05-19T23:13:49.943Z,26.00
2019-05-19T23:18:52.667Z,25.87
2019-05-19T23:23:55.384Z,26.03
2019-05-19T23:28:58.075Z,23.27
2019-05-19T23:34:00.795Z,25.53
2019-05-19T23:39:05.193Z,28.03
2019-05-19T23:44:08.162Z,29.67
2019-05-19T23:49:10.886Z,27.50
2019-05-19T23:54:13.602Z,27.37
2019-05-19T23:59:16.307Z,26.97
